Terminal Aerodrome Forecast
Issued by NWS

Home | Current Version | Previous Version | Text Only | Print | Product List | Glossary Off
Versions: 1 2 3 4 5 6 7 8 9 10 11 12 13 14

000
FTUS43 KTOP 272300
TAFMHK
TAF
KMHK 272326Z 2800/2824 10006KT P6SM BKN080 OVC100
     FM281400 13009KT 3SM -SN BR SCT012 BKN022
     FM281600 16010KT 2SM -SN BKN010=

USA.gov is the U.S. government's official web portal to all federal, state and local government web resources and services.